Time;durP1;ratioP1;P1;durP2;ratioP2;P2;SDS_P1;SDS_P2;PMS_P1;PMS_P2;Temp;Humidity;BMP_temperature;BMP_pressure;BME280_temperature;BME280_humidity;BME280_pressure;Samples;Min_cycle;Max_cycle;Signal;HPM_P1;HPM_P2
2022/10/05 00:00:44;;;;;;;1.50;0.75;;;18.20;87.60;;;;;;10349022;28;20479;-42
2022/10/05 00:05:48;;;;;;;3.53;1.20;;;18.80;84.50;;;;;;10358026;28;20562;-40
2022/10/05 00:10:51;;;;;;;2.53;1.17;;;18.20;86.10;;;;;;10344691;28;20088;-38
2022/10/05 00:15:57;;;;;;;3.33;1.20;;;18.30;86.20;;;;;;10368662;28;20058;-44
2022/10/05 00:21:01;;;;;;;1.83;1.08;;;18.10;85.50;;;;;;10341280;28;20161;-40
2022/10/05 00:26:11;;;;;;;2.45;1.10;;;18.00;86.60;;;;;;10367291;28;20050;-41
2022/10/05 00:31:17;;;;;;;3.22;1.05;;;17.80;88.10;;;;;;10362325;28;20077;-44
2022/10/05 00:36:21;;;;;;;1.25;0.70;;;17.20;90.20;;;;;;10356928;28;20050;-39
2022/10/05 00:41:30;;;;;;;2.20;0.80;;;17.80;86.90;;;;;;10359644;28;20073;-45
2022/10/05 00:46:39;;;;;;;2.25;0.90;;;18.00;86.40;;;;;;10355620;28;20042;-40
2022/10/05 00:51:49;;;;;;;2.65;1.00;;;18.00;86.90;;;;;;10365119;28;20068;-38
2022/10/05 00:57:23;;;;;;;2.25;0.95;;;17.70;86.70;;;;;;10368523;28;20084;-45
2022/10/05 01:02:30;;;;;;;2.15;0.80;;;17.80;86.40;;;;;;10358558;28;20081;-42
2022/10/05 01:07:45;;;;;;;1.65;0.70;;;18.00;87.00;;;;;;10350359;28;20053;-40
2022/10/05 01:12:58;;;;;;;2.25;0.82;;;18.00;86.40;;;;;;10356402;28;20049;-40
2022/10/05 01:18:05;;;;;;;5.80;1.10;;;18.70;83.30;;;;;;10351111;28;20089;-48
2022/10/05 01:23:46;;;;;;;1.27;0.98;;;18.50;82.80;;;;;;10354626;28;20092;-36
2022/10/05 01:28:54;;;;;;;4.22;1.10;;;17.60;87.10;;;;;;10378917;28;20549;-43
2022/10/05 01:34:06;;;;;;;2.45;1.05;;;17.60;86.20;;;;;;10351171;28;20117;-42
2022/10/05 01:39:16;;;;;;;1.43;0.80;;;18.00;86.10;;;;;;10363996;28;20122;-42
2022/10/05 01:44:26;;;;;;;5.15;0.90;;;18.50;85.10;;;;;;10347071;28;20475;-40
2022/10/05 01:49:37;;;;;;;2.58;1.50;;;19.20;80.20;;;;;;10341031;28;20073;-41
2022/10/05 01:54:49;;;;;;;4.28;0.98;;;19.60;77.90;;;;;;10348297;28;20042;-44
2022/10/05 02:00:05;;;;;;;1.85;1.00;;;18.90;82.00;;;;;;10379736;28;20081;-40
2022/10/05 02:05:13;;;;;;;1.38;0.70;;;18.50;83.60;;;;;;10370112;28;20116;-39
2022/10/05 02:10:21;;;;;;;3.25;1.38;;;18.80;83.30;;;;;;10345911;28;20057;-35
2022/10/05 02:15:29;;;;;;;2.92;1.40;;;18.20;85.10;;;;;;10346263;28;20109;-40
2022/10/05 02:20:34;;;;;;;2.35;1.45;;;18.00;85.20;;;;;;10354605;28;20078;-41
2022/10/05 02:25:39;;;;;;;3.67;1.20;;;18.30;84.90;;;;;;10358118;28;20070;-40
2022/10/05 02:30:47;;;;;;;2.38;0.88;;;18.10;85.40;;;;;;10344117;28;20129;-38
2022/10/05 02:35:49;;;;;;;2.15;0.95;;;19.10;81.60;;;;;;10361568;28;20478;-45
2022/10/05 02:40:58;;;;;;;2.88;1.80;;;18.70;84.30;;;;;;10359409;28;20101;-41
2022/10/05 02:46:09;;;;;;;4.82;1.92;;;18.80;82.30;;;;;;10356181;28;20057;-39
2022/10/05 02:51:19;;;;;;;2.20;1.30;;;18.10;85.50;;;;;;10365536;28;20081;-40
2022/10/05 02:56:29;;;;;;;2.60;1.40;;;18.50;84.40;;;;;;10366517;28;20526;-41
2022/10/05 03:01:38;;;;;;;2.97;1.50;;;18.10;85.80;;;;;;10344598;28;20050;-43
2022/10/05 03:06:46;;;;;;;3.53;2.05;;;18.00;86.70;;;;;;10350597;28;20108;-41
2022/10/05 03:11:57;;;;;;;2.42;1.70;;;17.70;87.80;;;;;;10356789;28;20073;-42
2022/10/05 03:17:11;;;;;;;4.03;2.00;;;17.50;89.40;;;;;;10347158;28;20549;-38
2022/10/05 03:22:22;;;;;;;2.65;1.90;;;18.10;85.90;;;;;;10335788;28;20074;-41
2022/10/05 03:27:36;;;;;;;4.15;2.10;;;17.70;87.90;;;;;;10374633;28;20200;-39
2022/10/05 03:32:50;;;;;;;2.10;1.00;;;17.70;86.90;;;;;;10342231;28;20140;-41
2022/10/05 03:37:59;;;;;;;2.58;1.38;;;17.90;87.40;;;;;;10367085;28;20069;-38
2022/10/05 03:43:17;;;;;;;2.20;1.40;;;18.70;83.80;;;;;;10368380;28;20077;-46
2022/10/05 03:48:27;;;;;;;2.97;2.00;;;18.30;85.10;;;;;;10352751;28;20462;-43
2022/10/05 03:53:35;;;;;;;1.92;1.50;;;18.20;85.70;;;;;;10371750;28;20074;-40
2022/10/05 03:58:44;;;;;;;2.78;1.70;;;17.70;87.90;;;;;;10348332;28;20042;-42
2022/10/05 04:03:52;;;;;;;3.95;1.65;;;17.70;87.60;;;;;;10352462;28;20076;-41
2022/10/05 04:08:59;;;;;;;1.60;1.35;;;17.70;87.30;;;;;;10358185;28;20053;-39
2022/10/05 04:14:04;;;;;;;2.13;1.70;;;17.20;90.00;;;;;;10346340;28;20510;-41
2022/10/05 04:19:15;;;;;;;2.08;1.30;;;17.20;90.20;;;;;;10348767;28;20089;-40
2022/10/05 04:24:20;;;;;;;2.35;1.30;;;17.80;87.40;;;;;;10356995;28;20049;-38
2022/10/05 04:29:31;;;;;;;3.17;1.50;;;18.20;85.00;;;;;;10350911;28;20077;-42
2022/10/05 04:34:55;;;;;;;1.17;0.90;;;17.80;85.60;;;;;;10354587;28;20085;-42
2022/10/05 04:40:10;;;;;;;2.30;1.00;;;18.60;82.60;;;;;;10362707;28;20077;-41
2022/10/05 04:45:21;;;;;;;1.73;1.00;;;17.90;85.40;;;;;;10351795;28;20069;-43
2022/10/05 04:50:35;;;;;;;3.13;0.90;;;17.80;86.90;;;;;;10344364;28;20714;-40
2022/10/05 04:55:44;;;;;;;4.30;0.80;;;17.50;88.10;;;;;;10357471;28;20077;-42
2022/10/05 05:00:58;;;;;;;0.88;0.57;;;18.80;81.20;;;;;;10363033;28;20506;-38
2022/10/05 05:06:10;;;;;;;2.05;0.95;;;18.90;81.70;;;;;;10359896;28;20054;-39
2022/10/05 05:11:25;;;;;;;1.45;0.70;;;18.30;83.80;;;;;;10341974;28;20077;-45
2022/10/05 05:16:33;;;;;;;1.63;0.70;;;18.40;83.40;;;;;;10350470;28;20077;-39
2022/10/05 05:21:44;;;;;;;2.00;0.65;;;17.80;85.70;;;;;;10351599;28;20538;-41
2022/10/05 05:27:00;;;;;;;0.52;0.40;;;18.80;81.10;;;;;;10349673;28;20153;-45
2022/10/05 05:32:08;;;;;;;1.00;0.70;;;18.40;82.90;;;;;;10345924;28;20101;-40
2022/10/05 05:37:19;;;;;;;1.33;0.90;;;17.90;85.30;;;;;;10349952;28;20866;-40
2022/10/05 05:42:34;;;;;;;1.23;0.80;;;17.00;89.00;;;;;;10351509;28;20137;-41
2022/10/05 05:47:40;;;;;;;0.60;0.60;;;17.20;88.70;;;;;;10344691;28;20046;-41
2022/10/05 05:52:48;;;;;;;3.25;1.73;;;17.90;85.80;;;;;;10344050;28;20132;-41
2022/10/05 05:57:56;;;;;;;0.88;0.70;;;17.40;87.20;;;;;;10347403;28;20062;-40
2022/10/05 06:03:05;;;;;;;2.38;0.70;;;17.40;88.40;;;;;;10346874;28;20053;-40
2022/10/05 06:08:16;;;;;;;1.60;0.70;;;18.30;84.50;;;;;;10347471;28;20042;-40
2022/10/05 06:13:22;;;;;;;1.00;0.82;;;17.60;87.30;;;;;;10347021;28;20651;-41
2022/10/05 06:18:25;;;;;;;1.45;0.88;;;17.30;87.70;;;;;;10343028;28;20135;-43
2022/10/05 06:23:35;;;;;;;1.30;0.75;;;17.10;90.20;;;;;;10343605;28;20132;-42
2022/10/05 06:28:37;;;;;;;2.40;1.42;;;17.40;88.50;;;;;;10345025;28;20081;-41
2022/10/05 06:33:48;;;;;;;2.22;1.17;;;16.90;90.90;;;;;;10354117;28;20481;-40
2022/10/05 06:39:09;;;;;;;2.33;1.30;;;17.90;86.70;;;;;;10363712;28;20077;-42
2022/10/05 06:44:16;;;;;;;1.90;1.55;;;17.60;87.90;;;;;;10353198;28;20133;-41
2022/10/05 06:49:22;;;;;;;2.40;1.35;;;17.40;89.40;;;;;;10338738;28;20550;-42
2022/10/05 06:54:45;;;;;;;1.17;0.98;;;17.40;89.50;;;;;;10353572;28;20139;-40
2022/10/05 06:59:53;;;;;;;3.45;2.05;;;17.30;89.30;;;;;;10336260;28;20137;-40
2022/10/05 07:05:29;;;;;;;1.70;0.95;;;16.80;90.80;;;;;;10342270;28;20147;-37
2022/10/05 07:10:40;;;;;;;2.15;1.10;;;17.40;88.40;;;;;;10347362;28;20129;-40
2022/10/05 07:15:49;;;;;;;4.70;1.80;;;17.80;86.40;;;;;;10347297;28;20046;-38
2022/10/05 07:20:58;;;;;;;2.15;0.73;;;17.40;89.30;;;;;;10357401;28;20085;-40
2022/10/05 07:26:07;;;;;;;1.13;0.75;;;18.50;84.50;;;;;;10352918;28;20080;-42
2022/10/05 07:31:17;;;;;;;3.78;1.88;;;18.00;86.80;;;;;;10330399;28;20096;-40
2022/10/05 07:41:53;;;;;;;3.30;1.20;;;18.50;84.70;;;;;;10346950;28;20057;-41
2022/10/05 07:47:00;;;;;;;1.85;0.90;;;18.20;84.70;;;;;;10340106;28;20050;-39
2022/10/05 07:52:05;;;;;;;5.60;2.08;;;18.00;86.10;;;;;;10351937;28;20061;-41
2022/10/05 07:57:17;;;;;;;1.52;0.85;;;18.20;85.00;;;;;;10358017;28;20053;-43
2022/10/05 08:02:23;;;;;;;;;;;18.20;84.90;;;;;;10349437;28;20057;-42
2022/10/05 08:07:26;;;;;;;4.25;1.67;;;18.10;86.10;;;;;;10352419;28;19926;-41
2022/10/05 08:12:40;;;;;;;3.10;1.25;;;18.00;86.40;;;;;;10354346;28;20660;-44
2022/10/05 08:17:50;;;;;;;2.70;0.70;;;17.80;88.60;;;;;;10347878;28;20089;-41
2022/10/05 08:22:57;;;;;;;2.50;1.23;;;18.80;82.80;;;;;;10348562;28;20073;-39
2022/10/05 08:28:08;;;;;;;1.88;1.10;;;18.20;86.00;;;;;;10344904;28;20846;-43
2022/10/05 08:33:14;;;;;;;4.90;1.80;;;18.40;84.20;;;;;;10341868;28;20474;-37
2022/10/05 08:38:19;;;;;;;1.75;0.98;;;18.40;84.20;;;;;;10362206;28;20107;-43
2022/10/05 08:43:44;;;;;;;12.38;1.10;;;18.60;83.50;;;;;;10350636;28;20592;-40
2022/10/05 08:49:14;;;;;;;2.22;1.00;;;18.10;85.50;;;;;;10358585;28;20037;-40
2022/10/05 08:54:28;;;;;;;5.05;1.35;;;17.90;87.40;;;;;;10343478;28;20081;-42
2022/10/05 09:00:03;;;;;;;1.27;1.15;;;17.50;89.80;;;;;;10354700;28;20113;-41
2022/10/05 09:05:42;;;;;;;1.38;0.88;;;18.10;86.20;;;;;;10351710;28;20410;-40
2022/10/05 09:11:06;;;;;;;4.90;0.98;;;17.90;87.10;;;;;;10348926;28;20050;-40
2022/10/05 09:16:23;;;;;;;1.30;0.90;;;18.40;85.40;;;;;;10367645;28;20046;-38
2022/10/05 09:21:40;;;;;;;2.17;0.90;;;17.80;87.60;;;;;;10348168;28;20732;-40
2022/10/05 09:26:44;;;;;;;3.03;0.98;;;18.00;86.60;;;;;;10354673;28;20518;-39
2022/10/05 09:32:07;;;;;;;2.70;0.98;;;17.80;87.00;;;;;;10348459;28;20038;-37
2022/10/05 09:37:35;;;;;;;2.33;1.00;;;18.10;84.60;;;;;;10370981;28;20054;-42
2022/10/05 09:43:09;;;;;;;4.60;1.20;;;18.20;84.40;;;;;;10343999;28;20223;-41
2022/10/05 09:49:05;;;;;;;2.10;0.60;;;17.40;87.60;;;;;;10358970;28;20064;-43
2022/10/05 09:54:50;;;;;;;5.22;1.08;;;17.60;87.30;;;;;;10311406;28;20602;-41
2022/10/05 10:00:08;;;;;;;5.60;1.33;;;18.00;84.70;;;;;;10243807;28;20138;-40
2022/10/05 10:05:41;;;;;;;2.50;0.70;;;17.80;85.60;;;;;;10338190;28;20053;-38
2022/10/05 10:11:29;;;;;;;0.85;0.47;;;17.70;86.90;;;;;;10375044;28;20081;-40
2022/10/05 10:16:43;;;;;;;1.00;0.60;;;17.80;86.90;;;;;;10232951;28;20043;-42
2022/10/05 10:22:09;;;;;;;3.25;0.90;;;18.20;84.70;;;;;;10342050;28;20086;-42
2022/10/05 10:27:22;;;;;;;3.10;0.95;;;17.80;86.20;;;;;;10344083;28;20502;-40
2022/10/05 10:33:10;;;;;;;1.40;0.95;;;18.10;85.20;;;;;;10354019;28;20125;-39
2022/10/05 10:38:35;;;;;;;2.80;1.23;;;17.80;86.60;;;;;;10284963;28;20041;-41
2022/10/05 10:44:01;;;;;;;2.10;1.10;;;17.90;86.50;;;;;;10345025;28;20049;-43
2022/10/05 10:49:16;;;;;;;1.80;1.00;;;17.70;88.00;;;;;;10347346;28;20069;-44
2022/10/05 10:54:42;;;;;;;1.52;1.35;;;18.10;86.30;;;;;;10348608;28;20042;-40
2022/10/05 11:00:02;;;;;;;5.90;2.70;;;17.90;87.10;;;;;;10357749;28;20045;-41
2022/10/05 11:05:35;;;;;;;3.88;1.35;;;17.40;89.30;;;;;;10353525;28;20060;-40
2022/10/05 11:11:16;;;;;;;2.92;1.23;;;18.20;85.30;;;;;;10316518;28;20066;-45
2022/10/05 11:16:50;;;;;;;2.88;1.63;;;17.90;86.90;;;;;;10360751;28;20134;-42
2022/10/05 11:22:08;;;;;;;2.25;0.90;;;18.60;83.80;;;;;;10303811;28;20162;-42
2022/10/05 11:27:35;;;;;;;7.22;1.63;;;18.90;82.40;;;;;;10309715;28;20077;-39
2022/10/05 11:33:10;;;;;;;3.42;1.60;;;18.90;82.00;;;;;;10305596;28;20149;-41
2022/10/05 11:38:27;;;;;;;3.30;1.17;;;18.30;86.10;;;;;;10319992;28;20051;-40
2022/10/05 11:44:04;;;;;;;5.30;2.00;;;18.70;83.20;;;;;;10307851;28;20049;-44
2022/10/05 11:49:35;;;;;;;2.75;0.95;;;18.30;85.70;;;;;;10312220;28;20078;-39
2022/10/05 11:55:02;;;;;;;3.00;1.45;;;18.50;84.50;;;;;;10307758;28;20082;-40
2022/10/05 12:00:11;;;;;;;3.25;1.30;;;18.40;85.40;;;;;;10307485;28;20130;-42
2022/10/05 12:05:21;;;;;;;3.08;1.52;;;18.40;85.90;;;;;;10306399;28;20069;-41
2022/10/05 12:10:31;;;;;;;5.32;1.85;;;18.50;84.60;;;;;;10307512;28;20069;-41
2022/10/05 12:15:43;;;;;;;2.65;1.90;;;18.70;84.30;;;;;;10304828;28;20460;-40
2022/10/05 12:20:50;;;;;;;5.82;1.58;;;18.80;83.70;;;;;;10358512;28;20065;-41
2022/10/05 12:25:57;;;;;;;3.38;1.55;;;18.80;83.80;;;;;;10344561;28;20060;-39
2022/10/05 12:31:17;;;;;;;8.80;2.00;;;18.80;83.30;;;;;;10355283;28;20483;-43
2022/10/05 12:36:28;;;;;;;7.13;2.42;;;18.90;83.20;;;;;;10353764;28;20498;-41
2022/10/05 12:41:36;;;;;;;5.28;1.67;;;18.70;84.50;;;;;;10344793;28;20084;-40
2022/10/05 12:46:47;;;;;;;1.73;1.08;;;18.40;84.90;;;;;;10346442;28;20549;-43
2022/10/05 12:51:56;;;;;;;1.85;0.80;;;18.90;83.70;;;;;;10350715;28;20053;-42
2022/10/05 12:57:04;;;;;;;5.88;2.10;;;19.20;81.90;;;;;;10358348;28;20042;-43
2022/10/05 13:02:16;;;;;;;3.60;1.15;;;18.90;83.70;;;;;;10350760;28;20085;-47
2022/10/05 13:07:51;;;;;;;7.63;2.35;;;19.50;81.20;;;;;;10357593;28;20046;-38
2022/10/05 13:13:05;;;;;;;5.18;1.10;;;19.60;82.00;;;;;;10334153;28;20058;-42
2022/10/05 13:18:18;;;;;;;3.17;1.30;;;20.00;79.20;;;;;;10356033;28;20145;-40
2022/10/05 13:23:30;;;;;;;1.85;0.80;;;19.80;79.50;;;;;;10345078;28;20053;-40
2022/10/05 13:28:40;;;;;;;3.97;1.53;;;19.60;80.80;;;;;;10344304;28;20049;-41
2022/10/05 13:34:01;;;;;;;5.93;1.08;;;19.70;80.20;;;;;;10352667;28;20477;-43
2022/10/05 13:39:14;;;;;;;1.60;0.93;;;19.70;79.20;;;;;;10362265;28;20499;-42
2022/10/05 13:44:24;;;;;;;3.72;0.80;;;19.90;79.20;;;;;;10353355;28;20096;-42
2022/10/05 13:49:35;;;;;;;4.75;1.15;;;19.40;81.40;;;;;;10365846;28;20054;-42
2022/10/05 13:54:45;;;;;;;2.90;1.05;;;18.90;83.90;;;;;;10358913;28;20077;-40
2022/10/05 13:59:53;;;;;;;6.72;1.08;;;19.00;82.90;;;;;;10346346;28;20129;-42
2022/10/05 14:05:00;;;;;;;5.40;1.30;;;18.90;83.50;;;;;;10345550;28;20119;-41
2022/10/05 14:10:09;;;;;;;5.05;1.13;;;19.00;82.80;;;;;;10351232;28;20038;-40
2022/10/05 14:15:21;;;;;;;6.70;1.20;;;19.50;80.70;;;;;;10348995;28;20074;-43
2022/10/05 14:20:25;;;;;;;4.15;1.05;;;19.30;81.20;;;;;;10351345;28;20162;-44
2022/10/05 14:25:30;;;;;;;2.63;0.90;;;19.70;79.60;;;;;;10351582;28;20140;-40
2022/10/05 14:30:33;;;;;;;2.58;0.93;;;19.90;78.60;;;;;;10346369;28;20176;-37
2022/10/05 14:35:47;;;;;;;3.85;1.20;;;19.70;80.20;;;;;;10345923;28;20045;-42
2022/10/05 14:41:19;;;;;;;2.75;1.00;;;19.60;79.70;;;;;;10334294;28;20055;-39
2022/10/05 14:46:24;;;;;;;6.27;0.93;;;19.50;81.10;;;;;;10343173;28;20093;-42
2022/10/05 14:51:30;;;;;;;4.82;1.35;;;19.10;82.70;;;;;;10359081;28;20090;-45
2022/10/05 14:56:46;;;;;;;2.72;2.08;;;19.50;81.40;;;;;;10358242;28;20053;-41
2022/10/05 15:01:54;;;;;;;1.77;1.38;;;19.20;82.60;;;;;;10336308;28;20069;-40
2022/10/05 15:07:04;;;;;;;2.38;1.40;;;19.10;83.40;;;;;;10336955;28;20085;-43
2022/10/05 15:12:09;;;;;;;2.13;1.30;;;18.80;84.10;;;;;;10338173;28;20046;-40
2022/10/05 15:17:18;;;;;;;4.82;1.55;;;18.80;85.00;;;;;;10343882;28;20076;-41
2022/10/05 15:22:56;;;;;;;2.17;1.17;;;19.20;83.60;;;;;;10335704;28;20156;-35
2022/10/05 15:28:17;;;;;;;5.40;1.50;;;18.70;85.30;;;;;;10352345;28;20049;-42
2022/10/05 15:33:26;;;;;;;2.70;1.50;;;19.30;82.60;;;;;;10337019;28;20054;-41
2022/10/05 15:38:35;;;;;;;2.90;1.20;;;19.00;84.30;;;;;;10332898;28;20129;-42
2022/10/05 15:43:47;;;;;;;2.83;1.35;;;18.80;85.10;;;;;;10349887;28;20404;-41
2022/10/05 15:48:59;;;;;;;3.10;1.55;;;18.80;85.60;;;;;;10339952;28;20050;-45
2022/10/05 15:59:36;;;;;;;8.80;1.70;;;18.80;85.90;;;;;;10356844;28;20046;-40
2022/10/05 16:04:47;;;;;;;2.87;1.17;;;18.60;86.50;;;;;;10360486;28;20060;-45
2022/10/05 16:09:55;;;;;;;4.18;1.58;;;18.40;88.00;;;;;;10349192;28;20461;-46
2022/10/05 16:15:12;;;;;;;5.72;1.77;;;18.30;88.80;;;;;;10345856;28;20057;-43
2022/10/05 16:20:29;;;;;;;3.58;1.50;;;18.70;87.10;;;;;;10353316;28;20089;-42
2022/10/05 16:25:45;;;;;;;3.58;0.95;;;18.40;88.60;;;;;;10351917;28;20149;-38
2022/10/05 16:30:57;;;;;;;3.50;1.50;;;18.80;86.90;;;;;;10356083;28;20077;-42
2022/10/05 16:36:03;;;;;;;;;;;19.10;85.80;;;;;;10351544;28;20142;-45
2022/10/05 16:41:13;;;;;;;2.95;1.70;;;18.70;87.70;;;;;;10361455;28;20008;-38
2022/10/05 16:46:24;;;;;;;4.15;1.98;;;18.70;87.50;;;;;;10356549;28;20053;-44
2022/10/05 16:51:31;;;;;;;8.32;2.47;;;18.60;88.50;;;;;;10348661;28;20050;-41
2022/10/05 16:56:40;;;;;;;3.25;1.55;;;18.80;87.40;;;;;;10348178;28;20125;-42
2022/10/05 17:01:54;;;;;;;3.25;1.75;;;18.90;86.90;;;;;;10343868;28;20115;-43
2022/10/05 17:07:19;;;;;;;5.90;1.83;;;18.80;87.10;;;;;;10351042;28;20571;-42
2022/10/05 17:12:39;;;;;;;7.25;1.70;;;18.40;90.30;;;;;;10366697;28;20046;-38
2022/10/05 17:18:00;;;;;;;7.70;2.25;;;18.00;91.50;;;;;;10365480;28;20514;-43
2022/10/05 17:23:15;;;;;;;5.82;1.95;;;17.80;92.60;;;;;;10351882;28;20106;-43
2022/10/05 17:28:23;;;;;;;5.47;1.63;;;17.80;92.40;;;;;;10351363;28;20046;-48
2022/10/05 17:33:30;;;;;;;2.90;1.98;;;17.80;91.60;;;;;;10353954;28;20534;-41
2022/10/05 17:38:46;;;;;;;6.95;2.47;;;17.80;92.20;;;;;;10356871;28;20066;-43
2022/10/05 17:44:23;;;;;;;4.28;1.65;;;17.90;92.10;;;;;;10353115;28;20199;-41
2022/10/05 17:55:37;;;;;;;3.88;1.70;;;18.00;92.00;;;;;;10357664;28;20641;-42
2022/10/05 18:01:05;;;;;;;10.70;2.97;;;17.90;92.80;;;;;;10349030;28;20046;-40
2022/10/05 18:06:40;;;;;;;15.13;2.08;;;17.60;96.60;;;;;;10357595;28;20049;-38
2022/10/05 18:11:44;;;;;;;18.42;3.40;;;17.80;96.20;;;;;;10358194;28;20224;-38
2022/10/05 18:17:00;;;;;;;9.88;2.17;;;17.00;99.10;;;;;;10355388;28;20463;-37
2022/10/05 18:22:26;;;;;;;5.63;1.55;;;16.70;99.90;;;;;;10349224;28;20129;-37
2022/10/05 18:27:51;;;;;;;11.68;2.58;;;16.60;99.90;;;;;;10353204;28;20064;-39
2022/10/05 18:33:20;;;;;;;35.30;1.98;;;16.60;99.90;;;;;;10353897;28;20054;-38
2022/10/05 18:38:34;;;;;;;8.20;0.90;;;16.20;99.90;;;;;;10355019;28;20415;-35
2022/10/05 18:43:43;;;;;;;3.97;0.90;;;16.90;98.70;;;;;;10356120;28;20050;-40
2022/10/05 18:48:55;;;;;;;9.10;1.50;;;16.70;99.90;;;;;;10353027;28;20053;-40
2022/10/05 18:54:09;;;;;;;7.22;1.30;;;16.40;99.90;;;;;;10352907;28;20543;-40
2022/10/05 18:59:31;;;;;;;18.92;2.13;;;16.10;99.90;;;;;;10356096;28;20050;-39
2022/10/05 19:04:42;;;;;;;13.10;1.48;;;16.50;99.30;;;;;;10355117;28;20077;-39
2022/10/05 19:10:03;;;;;;;12.00;1.52;;;16.00;99.90;;;;;;10353907;28;20046;-40
2022/10/05 19:15:16;;;;;;;7.85;1.40;;;16.40;99.90;;;;;;10353261;28;20081;-40
2022/10/05 19:20:25;;;;;;;7.72;1.50;;;16.60;99.10;;;;;;10354287;28;20053;-37
2022/10/05 19:25:37;;;;;;;9.25;1.83;;;16.20;99.90;;;;;;10350509;28;20053;-42
2022/10/05 19:30:51;;;;;;;22.17;3.47;;;16.40;99.60;;;;;;10350478;28;20046;-40
2022/10/05 19:36:03;;;;;;;14.38;1.80;;;16.30;99.90;;;;;;10349942;28;20716;-42
2022/10/05 19:41:14;;;;;;;8.40;0.93;;;17.20;96.60;;;;;;10354554;28;20140;-38
2022/10/05 19:46:26;;;;;;;8.13;1.05;;;16.80;97.10;;;;;;10352969;28;20064;-42
2022/10/05 19:51:30;;;;;;;3.30;0.88;;;16.00;97.70;;;;;;10351549;28;20046;-48
2022/10/05 19:56:34;;;;;;;21.88;1.27;;;16.30;97.40;;;;;;10351663;28;20133;-40
2022/10/05 20:01:40;;;;;;;10.75;1.27;;;15.20;99.90;;;;;;10353285;28;20043;-39
2022/10/05 20:06:42;;;;;;;6.95;0.90;;;15.20;99.90;;;;;;10352939;28;20533;-39
2022/10/05 20:11:51;;;;;;;7.97;0.83;;;15.60;99.90;;;;;;10352120;28;20121;-37
2022/10/05 20:22:39;;;;;;;4.28;1.20;;;15.60;99.90;;;;;;10350692;28;20066;-36
2022/10/05 20:27:47;;;;;;;10.50;0.95;;;16.40;98.30;;;;;;10349825;28;20042;-40
2022/10/05 20:32:50;;;;;;;3.58;0.90;;;16.00;99.60;;;;;;10350488;28;20637;-38
2022/10/05 20:37:51;;;;;;;5.28;1.33;;;17.70;94.40;;;;;;10350210;28;20103;-39
2022/10/05 20:42:55;;;;;;;3.80;1.07;;;16.80;96.80;;;;;;10350615;28;20141;-38
2022/10/05 20:47:57;;;;;;;3.83;1.15;;;17.80;94.70;;;;;;10359846;28;20505;-39
2022/10/05 20:52:59;;;;;;;10.60;1.70;;;18.10;93.80;;;;;;10360599;28;20061;-38
2022/10/05 20:58:02;;;;;;;8.68;1.80;;;17.50;95.10;;;;;;10360057;28;20046;-39
2022/10/05 21:03:04;;;;;;;6.82;1.15;;;16.20;97.90;;;;;;10361443;28;20753;-39
2022/10/05 21:08:07;;;;;;;18.77;1.80;;;16.30;96.40;;;;;;10364007;28;20539;-39
2022/10/05 21:13:10;;;;;;;17.63;1.83;;;15.70;98.00;;;;;;10365102;28;20046;-41
2022/10/05 21:18:12;;;;;;;10.50;1.80;;;15.90;96.10;;;;;;10362018;28;20148;-35
2022/10/05 21:23:13;;;;;;;10.43;1.33;;;15.80;96.20;;;;;;10361678;28;20046;-43
2022/10/05 21:28:17;;;;;;;14.90;2.67;;;15.80;96.30;;;;;;10360937;28;20055;-41
2022/10/05 21:33:19;;;;;;;11.88;1.73;;;15.70;96.20;;;;;;10360653;28;20053;-42
2022/10/05 21:38:21;;;;;;;12.00;2.10;;;16.10;94.70;;;;;;10359784;28;20058;-43
2022/10/05 21:43:24;;;;;;;14.90;1.30;;;15.90;94.90;;;;;;10353895;28;20097;-39
2022/10/05 21:48:27;;;;;;;17.15;1.52;;;16.30;94.50;;;;;;10345014;28;20042;-38
2022/10/05 21:53:31;;;;;;;9.85;1.42;;;15.90;94.30;;;;;;10356412;28;20134;-39
2022/10/05 21:58:35;;;;;;;11.23;1.60;;;15.60;94.70;;;;;;10359110;28;20098;-41
2022/10/05 22:03:37;;;;;;;10.80;2.20;;;16.00;93.60;;;;;;10355532;28;20429;-37
2022/10/05 22:08:39;;;;;;;14.33;2.03;;;16.00;92.40;;;;;;10356544;28;20052;-39
2022/10/05 22:13:45;;;;;;;9.55;1.33;;;15.70;93.00;;;;;;10356967;28;20050;-40
2022/10/05 22:18:47;;;;;;;8.70;1.60;;;15.80;93.10;;;;;;10355447;28;20647;-41
2022/10/05 22:23:49;;;;;;;19.13;1.57;;;15.80;92.50;;;;;;10355888;28;20447;-45
2022/10/05 22:28:55;;;;;;;13.70;1.90;;;15.50;93.30;;;;;;10358693;28;20502;-42
2022/10/05 22:33:57;;;;;;;8.15;1.30;;;15.70;94.90;;;;;;10358392;28;20480;-40
2022/10/05 22:38:59;;;;;;;16.23;2.27;;;16.10;92.30;;;;;;10357169;28;20050;-42
2022/10/05 22:44:03;;;;;;;17.87;1.90;;;16.30;93.00;;;;;;10362297;28;20517;-40
2022/10/05 22:49:05;;;;;;;13.50;1.83;;;15.90;92.70;;;;;;10359250;28;20057;-40
2022/10/05 22:54:06;;;;;;;13.23;1.97;;;15.90;93.50;;;;;;10357529;28;20100;-43
2022/10/05 22:59:10;;;;;;;10.57;1.67;;;15.60;92.30;;;;;;10356124;28;20597;-46
2022/10/05 23:04:12;;;;;;;15.15;1.90;;;16.10;93.60;;;;;;10356051;28;20418;-36
2022/10/05 23:09:14;;;;;;;12.55;2.03;;;15.60;93.40;;;;;;10355696;28;20056;-42
2022/10/05 23:14:17;;;;;;;14.13;1.60;;;15.80;93.30;;;;;;10358710;28;20149;-41
2022/10/05 23:19:20;;;;;;;20.30;1.90;;;16.00;90.50;;;;;;10355027;28;20157;-42
2022/10/05 23:24:21;;;;;;;;;;;15.40;88.50;;;;;;10354777;28;20132;-39
2022/10/05 23:29:24;;;;;;;12.88;1.58;;;15.10;89.60;;;;;;10356128;28;20350;-42
2022/10/05 23:34:26;;;;;;;12.93;1.33;;;15.60;93.70;;;;;;10357493;28;20100;-39
2022/10/05 23:39:28;;;;;;;12.40;1.60;;;16.00;91.60;;;;;;10356311;28;20049;-44
2022/10/05 23:44:31;;;;;;;13.70;1.47;;;15.60;92.50;;;;;;10356755;28;20558;-41
2022/10/05 23:49:33;;;;;;;10.88;1.30;;;15.70;91.60;;;;;;10356903;28;20703;-41
2022/10/05 23:54:35;;;;;;;9.95;2.47;;;15.50;90.80;;;;;;10356573;28;20223;-42
2022/10/05 23:59:38;;;;;;;8.97;1.03;;;15.60;87.60;;;;;;10358118;28;20078;-40
